Terminal Aerodrome Forecast
Issued by NWS

Home | Current Version | Previous Version | Text Only | Print | Product List | Glossary On
Versions: 1 2 3 4 5 6 7 8 9 10 11 12 13 14 15 16 17 18 19 20 21 22 23 24 25 26 27 28 29 30 31 32 33
000
FTUS41 KAKQ 050000 AAA
TAFPHF
TAF AMD
KPHF 050036Z 0501/0524 07005KT 5SM BR OVC003
      TEMPO 0501/0503 SCT003 OVC015
     FM050300 VRB03KT 5SM BR SCT015 OVC040
     FM050600 02010G18KT 4SM BR OVC015
     FM050900 03012G22KT 3SM -RA BR OVC007
     FM051900 03010G17KT 1SM -FZRAPL BR OVC005=

USA.gov is the U.S. government's official web portal to all federal, state and local government web resources and services.